GMMX/RAK METAR and TAF weather

Enter ICAO airport designator
Station Type Date Time Source
GMMX METAR 2022/06/26 09:00 UTC NOAA

GMMX 260900Z 05006KT 020V110 9999 FEW023 21/13 Q1015 NOSIG


Station Type Date Time Source
GMMX Decoded METAR 2022/06/26 09:00 UTC NOAA

Marrakech, Morocco (GMMX) 31-37N 008-02W 466M
Jun 26, 2022 - 05:00 AM EDT / 2022.06.26 0900 UTC
Wind: from the NE (050 degrees) at 7 MPH (6 KT) (direction variable):0
Visibility: greater than 7 mile(s):0
Sky conditions: mostly clear
Temperature: 69 F (21 C)
Dew Point: 55 F (13 C)
Relative Humidity: 60%
Pressure (altimeter): 29.97 in. Hg (1015 hPa)
ob: GMMX 260900Z 05006KT 020V110 9999 FEW023 21/13 Q1015 NOSIG
cycle: 9

Station Type Date Time Source
GMMX TAF 2022/06/26 06:18 UTC NOAA

TAF GMMX 260500Z 2606/2712 04006KT 9999 FEW023
TEMPO 2615/2622 34020KT SCT100

Example: see airport list